CheckWX is a tool to help pilots better visualize weather data.  It is not intended as a substitute for an official pre-flight weather briefing.

02:56:39 UTC

KRNV METAR
Cleveland Municipal Airport
Cleveland, Mississippi, USA
Current

22 mins ago

KRNV 180235Z AUTO 18011G14KT 10SM OVC022 17/14 A2994 RMK AO2 LTG DSNT SE T01660140
Observed
Feb-18 @ 02:35 UTC
Wind
  • 180° at 11 KTS
  • Gusting to 14 KTS
Visibility
10 SM
Flight Rules
MVFR
Cloud Levels
  • Overcast at 2,200' AGL
Temperature
17°C / 63°F
Dewpoint
14°C / 57°F
Humidity
83%
Altimeter
29.94" Hg
Pressure
1013.92 hPa
Previous

42 mins ago

KRNV 180215Z AUTO 17010KT 10SM OVC020 17/14 A2994 RMK AO2 T01700137
Observed
Feb-18 @ 02:15 UTC
Wind
  • 170° at 10 KTS
Visibility
10 SM
Flight Rules
MVFR
Cloud Levels
  • Overcast at 2,000' AGL
Temperature
17°C / 63°F
Dewpoint
14°C / 57°F
Humidity
83%
Altimeter
29.94" Hg
Pressure
1013.92 hPa
Previous

1 hour ago

KRNV 180155Z AUTO 16008KT 10SM OVC022 17/14 A2993 RMK AO2 T01700137
Observed
Feb-18 @ 01:55 UTC
Wind
  • 160° at 8 KTS
Visibility
10 SM
Flight Rules
MVFR
Cloud Levels
  • Overcast at 2,200' AGL
Temperature
17°C / 63°F
Dewpoint
14°C / 57°F
Humidity
83%
Altimeter
29.93" Hg
Pressure
1013.52 hPa